sensor_id;sensor_type;location;lat;lon;timestamp;pressure;altitude;pressure_sealevel;temperature;humidity
64933;BME280;51446;53.850;10.662;2023-07-13T00:02:14;101146.28;;;18.24;100.00
64933;BME280;51446;53.850;10.662;2023-07-13T00:04:40;101160.59;;;18.07;100.00
64933;BME280;51446;53.850;10.662;2023-07-13T00:07:05;101155.22;;;18.13;100.00
64933;BME280;51446;53.850;10.662;2023-07-13T00:09:30;101152.63;;;18.09;100.00
64933;BME280;51446;53.850;10.662;2023-07-13T00:11:57;101158.09;;;17.85;100.00
64933;BME280;51446;53.850;10.662;2023-07-13T00:14:23;101160.94;;;17.61;100.00
64933;BME280;51446;53.850;10.662;2023-07-13T00:16:49;101151.88;;;17.90;100.00
64933;BME280;51446;53.850;10.662;2023-07-13T00:19:14;101161.69;;;17.80;100.00
64933;BME280;51446;53.850;10.662;2023-07-13T00:21:41;101153.59;;;17.98;100.00
64933;BME280;51446;53.850;10.662;2023-07-13T00:24:08;101151.94;;;17.79;100.00
64933;BME280;51446;53.850;10.662;2023-07-13T00:26:37;101153.03;;;17.55;100.00
64933;BME280;51446;53.850;10.662;2023-07-13T00:29:03;101155.59;;;17.65;100.00
64933;BME280;51446;53.850;10.662;2023-07-13T00:31:28;101157.59;;;17.29;100.00
64933;BME280;51446;53.850;10.662;2023-07-13T00:33:53;101157.56;;;17.34;100.00
64933;BME280;51446;53.850;10.662;2023-07-13T00:36:19;101155.81;;;17.34;100.00
64933;BME280;51446;53.850;10.662;2023-07-13T00:38:45;101155.75;;;17.44;100.00
64933;BME280;51446;53.850;10.662;2023-07-13T00:41:10;101152.19;;;17.46;100.00
64933;BME280;51446;53.850;10.662;2023-07-13T00:43:36;101147.53;;;17.81;100.00
64933;BME280;51446;53.850;10.662;2023-07-13T00:48:34;101144.75;;;17.99;100.00
64933;BME280;51446;53.850;10.662;2023-07-13T00:51:01;101149.19;;;17.97;100.00
64933;BME280;51446;53.850;10.662;2023-07-13T00:53:28;101147.44;;;17.89;100.00
64933;BME280;51446;53.850;10.662;2023-07-13T00:55:56;101139.56;;;17.82;100.00
64933;BME280;51446;53.850;10.662;2023-07-13T00:58:23;101136.91;;;17.82;100.00
64933;BME280;51446;53.850;10.662;2023-07-13T01:00:50;101135.09;;;17.91;100.00
64933;BME280;51446;53.850;10.662;2023-07-13T01:03:16;101135.19;;;17.77;100.00
64933;BME280;51446;53.850;10.662;2023-07-13T01:05:41;101135.19;;;17.75;100.00
64933;BME280;51446;53.850;10.662;2023-07-13T01:08:07;101147.44;;;17.89;100.00
64933;BME280;51446;53.850;10.662;2023-07-13T01:10:33;101136.16;;;17.65;100.00
64933;BME280;51446;53.850;10.662;2023-07-13T01:13:07;101146.00;;;17.49;100.00
64933;BME280;51446;53.850;10.662;2023-07-13T01:15:39;101153.88;;;17.58;100.00
64933;BME280;51446;53.850;10.662;2023-07-13T01:18:07;101155.53;;;17.78;100.00
64933;BME280;51446;53.850;10.662;2023-07-13T01:20:33;101146.66;;;17.77;100.00
64933;BME280;51446;53.850;10.662;2023-07-13T01:23:11;101151.09;;;17.77;100.00
64933;BME280;51446;53.850;10.662;2023-07-13T01:25:38;101141.41;;;17.73;100.00
64933;BME280;51446;53.850;10.662;2023-07-13T01:28:05;101139.69;;;17.64;100.00
64933;BME280;51446;53.850;10.662;2023-07-13T01:30:31;101142.47;;;17.45;100.00
64933;BME280;51446;53.850;10.662;2023-07-13T01:32:57;101142.47;;;17.47;100.00
64933;BME280;51446;53.850;10.662;2023-07-13T01:35:23;101145.13;;;17.47;100.00
64933;BME280;51446;53.850;10.662;2023-07-13T01:37:50;101147.88;;;17.28;100.00
64933;BME280;51446;53.850;10.662;2023-07-13T01:40:15;101143.59;;;17.09;100.00
64933;BME280;51446;53.850;10.662;2023-07-13T01:42:41;101149.56;;;17.43;100.00
64933;BME280;51446;53.850;10.662;2023-07-13T01:45:06;101155.09;;;17.05;100.00
64933;BME280;51446;53.850;10.662;2023-07-13T01:47:31;101162.97;;;17.19;100.00
64933;BME280;51446;53.850;10.662;2023-07-13T01:49:57;101158.47;;;17.33;100.00
64933;BME280;51446;53.850;10.662;2023-07-13T01:52:23;101155.03;;;17.12;100.00
64933;BME280;51446;53.850;10.662;2023-07-13T01:54:48;101160.34;;;17.17;100.00
64933;BME280;51446;53.850;10.662;2023-07-13T01:57:14;101156.66;;;17.38;100.00
64933;BME280;51446;53.850;10.662;2023-07-13T01:59:39;101145.16;;;17.42;100.00
64933;BME280;51446;53.850;10.662;2023-07-13T02:02:04;101139.19;;;17.05;100.00
64933;BME280;51446;53.850;10.662;2023-07-13T02:04:29;101146.94;;;17.40;100.00
64933;BME280;51446;53.850;10.662;2023-07-13T02:06:55;101151.25;;;17.55;100.00
64933;BME280;51446;53.850;10.662;2023-07-13T02:09:20;101146.03;;;17.40;100.00
64933;BME280;51446;53.850;10.662;2023-07-13T02:11:46;101150.53;;;17.34;100.00
64933;BME280;51446;53.850;10.662;2023-07-13T02:14:11;101151.53;;;17.12;100.00
64933;BME280;51446;53.850;10.662;2023-07-13T02:16:36;101154.16;;;17.12;100.00
64933;BME280;51446;53.850;10.662;2023-07-13T02:19:01;101155.03;;;17.15;100.00
64933;BME280;51446;53.850;10.662;2023-07-13T02:21:27;101147.97;;;17.16;100.00
64933;BME280;51446;53.850;10.662;2023-07-13T02:23:52;101149.69;;;17.25;100.00
64933;BME280;51446;53.850;10.662;2023-07-13T02:26:18;101141.88;;;17.02;100.00
64933;BME280;51446;53.850;10.662;2023-07-13T02:28:43;101145.41;;;16.96;100.00
64933;BME280;51446;53.850;10.662;2023-07-13T02:31:12;101148.09;;;16.79;100.00
64933;BME280;51446;53.850;10.662;2023-07-13T02:33:37;101149.06;;;16.50;100.00
64933;BME280;51446;53.850;10.662;2023-07-13T02:36:03;101141.03;;;16.90;100.00
64933;BME280;51446;53.850;10.662;2023-07-13T02:38:31;101148.06;;;16.87;100.00
64933;BME280;51446;53.850;10.662;2023-07-13T02:40:59;101146.16;;;17.20;100.00
64933;BME280;51446;53.850;10.662;2023-07-13T02:43:24;101143.53;;;17.16;100.00
64933;BME280;51446;53.850;10.662;2023-07-13T02:45:49;101138.34;;;16.93;100.00
64933;BME280;51446;53.850;10.662;2023-07-13T02:48:14;101137.47;;;16.85;100.00
64933;BME280;51446;53.850;10.662;2023-07-13T02:50:40;101138.41;;;16.75;100.00
64933;BME280;51446;53.850;10.662;2023-07-13T02:53:05;101138.53;;;16.27;100.00
64933;BME280;51446;53.850;10.662;2023-07-13T02:55:31;101144.72;;;16.32;100.00
64933;BME280;51446;53.850;10.662;2023-07-13T02:57:56;101146.50;;;16.24;100.00
64933;BME280;51446;53.850;10.662;2023-07-13T03:00:22;101149.09;;;16.38;100.00
64933;BME280;51446;53.850;10.662;2023-07-13T03:02:47;101145.56;;;16.42;100.00
64933;BME280;51446;53.850;10.662;2023-07-13T03:05:12;101141.16;;;16.35;100.00
64933;BME280;51446;53.850;10.662;2023-07-13T03:07:39;101145.56;;;16.50;100.00
64933;BME280;51446;53.850;10.662;2023-07-13T03:10:05;101156.13;;;16.53;100.00
64933;BME280;51446;53.850;10.662;2023-07-13T03:12:31;101148.13;;;16.74;100.00
64933;BME280;51446;53.850;10.662;2023-07-13T03:14:57;101148.94;;;16.95;100.00
64933;BME280;51446;53.850;10.662;2023-07-13T03:17:22;101150.75;;;16.80;100.00
64933;BME280;51446;53.850;10.662;2023-07-13T03:19:47;101150.81;;;16.56;100.00
64933;BME280;51446;53.850;10.662;2023-07-13T03:22:17;101148.19;;;16.57;100.00
64933;BME280;51446;53.850;10.662;2023-07-13T03:24:43;101146.47;;;16.44;100.00
64933;BME280;51446;53.850;10.662;2023-07-13T03:27:08;101145.59;;;16.19;100.00
64933;BME280;51446;53.850;10.662;2023-07-13T03:29:34;101142.97;;;16.02;100.00
64933;BME280;51446;53.850;10.662;2023-07-13T03:31:59;101146.50;;;16.18;100.00
64933;BME280;51446;53.850;10.662;2023-07-13T03:34:24;101150.06;;;16.10;100.00
64933;BME280;51446;53.850;10.662;2023-07-13T03:36:50;101152.66;;;16.29;100.00
64933;BME280;51446;53.850;10.662;2023-07-13T03:39:15;101153.50;;;16.42;100.00
64933;BME280;51446;53.850;10.662;2023-07-13T03:41:40;101156.19;;;16.20;100.00
64933;BME280;51446;53.850;10.662;2023-07-13T03:44:06;101153.59;;;16.05;100.00
64933;BME280;51446;53.850;10.662;2023-07-13T03:46:32;101157.09;;;16.22;100.00
64933;BME280;51446;53.850;10.662;2023-07-13T03:48:58;101151.75;;;16.42;100.00
64933;BME280;51446;53.850;10.662;2023-07-13T03:51:24;101151.75;;;16.44;100.00
64933;BME280;51446;53.850;10.662;2023-07-13T03:53:49;101149.91;;;16.64;100.00
64933;BME280;51446;53.850;10.662;2023-07-13T03:56:15;101142.84;;;16.65;100.00
64933;BME280;51446;53.850;10.662;2023-07-13T03:58:42;101154.31;;;16.70;100.00
64933;BME280;51446;53.850;10.662;2023-07-13T04:01:09;101146.34;;;16.89;100.00
64933;BME280;51446;53.850;10.662;2023-07-13T04:03:35;101150.75;;;16.90;100.00
64933;BME280;51446;53.850;10.662;2023-07-13T04:06:03;101162.19;;;16.95;100.00
64933;BME280;51446;53.850;10.662;2023-07-13T04:08:35;101158.56;;;17.10;100.00
64933;BME280;51446;53.850;10.662;2023-07-13T04:11:01;101165.63;;;17.15;100.00
64933;BME280;51446;53.850;10.662;2023-07-13T04:13:27;101155.44;;;17.85;100.00
64933;BME280;51446;53.850;10.662;2023-07-13T04:15:53;101161.47;;;18.11;100.00
64933;BME280;51446;53.850;10.662;2023-07-13T04:18:19;101154.91;;;18.47;100.00
64933;BME280;51446;53.850;10.662;2023-07-13T04:20:48;101154.16;;;18.33;100.00
64933;BME280;51446;53.850;10.662;2023-07-13T04:23:15;101152.31;;;18.38;100.00
64933;BME280;51446;53.850;10.662;2023-07-13T04:25:43;101148.81;;;18.36;100.00
64933;BME280;51446;53.850;10.662;2023-07-13T04:28:08;101147.78;;;18.49;100.00
64933;BME280;51446;53.850;10.662;2023-07-13T04:30:34;101147.63;;;18.65;100.00
64933;BME280;51446;53.850;10.662;2023-07-13T04:32:59;101153.69;;;18.75;100.00
64933;BME280;51446;53.850;10.662;2023-07-13T04:35:24;101154.56;;;18.75;100.00
64933;BME280;51446;53.850;10.662;2023-07-13T04:37:50;101152.28;;;18.44;100.00
64933;BME280;51446;53.850;10.662;2023-07-13T04:40:17;101151.16;;;18.64;100.00
64933;BME280;51446;53.850;10.662;2023-07-13T04:42:42;101143.22;;;18.61;100.00
64933;BME280;51446;53.850;10.662;2023-07-13T04:45:09;101144.19;;;18.55;100.00
64933;BME280;51446;53.850;10.662;2023-07-13T04:47:35;101149.59;;;18.47;100.00
64933;BME280;51446;53.850;10.662;2023-07-13T04:50:00;101140.41;;;18.76;100.00
64933;BME280;51446;53.850;10.662;2023-07-13T04:52:25;101143.03;;;18.78;100.00
64933;BME280;51446;53.850;10.662;2023-07-13T04:54:51;101144.09;;;18.64;100.00
64933;BME280;51446;53.850;10.662;2023-07-13T04:57:16;101149.53;;;18.52;100.00
64933;BME280;51446;53.850;10.662;2023-07-13T04:59:41;101137.06;;;18.60;100.00
64933;BME280;51446;53.850;10.662;2023-07-13T05:02:07;101144.72;;;18.86;100.00
64933;BME280;51446;53.850;10.662;2023-07-13T05:04:32;101142.06;;;18.86;100.00
64933;BME280;51446;53.850;10.662;2023-07-13T05:06:59;101138.75;;;18.66;100.00
64933;BME280;51446;53.850;10.662;2023-07-13T05:09:24;101133.16;;;18.91;100.00
64933;BME280;51446;53.850;10.662;2023-07-13T05:11:49;101144.50;;;19.05;100.00
64933;BME280;51446;53.850;10.662;2023-07-13T05:14:15;101144.81;;;18.77;100.00
64933;BME280;51446;53.850;10.662;2023-07-13T05:16:41;101142.94;;;18.88;100.00
64933;BME280;51446;53.850;10.662;2023-07-13T05:19:07;101152.19;;;18.50;100.00
64933;BME280;51446;53.850;10.662;2023-07-13T05:21:33;101150.72;;;18.23;100.00
64933;BME280;51446;53.850;10.662;2023-07-13T05:23:58;101154.94;;;18.43;100.00
64933;BME280;51446;53.850;10.662;2023-07-13T05:26:23;101152.88;;;18.68;100.00
64933;BME280;51446;53.850;10.662;2023-07-13T05:28:48;101158.13;;;18.76;100.00
64933;BME280;51446;53.850;10.662;2023-07-13T05:31:14;101158.69;;;19.02;100.00
64933;BME280;51446;53.850;10.662;2023-07-13T05:33:39;101159.78;;;18.84;100.00
64933;BME280;51446;53.850;10.662;2023-07-13T05:36:05;101161.56;;;18.82;100.00
64933;BME280;51446;53.850;10.662;2023-07-13T05:38:30;101159.19;;;18.58;100.00
64933;BME280;51446;53.850;10.662;2023-07-13T05:40:56;101165.94;;;18.89;100.00
64933;BME280;51446;53.850;10.662;2023-07-13T05:43:22;101165.75;;;19.05;100.00
64933;BME280;51446;53.850;10.662;2023-07-13T05:45:48;101164.44;;;18.64;100.00
64933;BME280;51446;53.850;10.662;2023-07-13T05:48:14;101167.50;;;18.27;100.00
64933;BME280;51446;53.850;10.662;2023-07-13T05:50:40;101169.25;;;18.28;100.00
64933;BME280;51446;53.850;10.662;2023-07-13T05:53:05;101168.25;;;18.41;100.00
64933;BME280;51446;53.850;10.662;2023-07-13T05:55:31;101178.88;;;18.41;100.00
64933;BME280;51446;53.850;10.662;2023-07-13T05:57:56;101176.75;;;18.71;100.00
64933;BME280;51446;53.850;10.662;2023-07-13T06:00:23;101183.81;;;18.73;100.00
64933;BME280;51446;53.850;10.662;2023-07-13T06:02:49;101177.66;;;18.71;100.00
64933;BME280;51446;53.850;10.662;2023-07-13T06:05:14;101175.03;;;18.65;100.00
64933;BME280;51446;53.850;10.662;2023-07-13T06:07:41;101176.88;;;19.35;100.00
64933;BME280;51446;53.850;10.662;2023-07-13T06:10:06;101170.09;;;19.73;100.00
64933;BME280;51446;53.850;10.662;2023-07-13T06:12:31;101165.63;;;19.76;100.00
64933;BME280;51446;53.850;10.662;2023-07-13T06:14:57;101169.13;;;19.80;100.00
64933;BME280;51446;53.850;10.662;2023-07-13T06:17:22;101171.31;;;20.08;100.00
64933;BME280;51446;53.850;10.662;2023-07-13T06:19:48;101173.75;;;20.22;100.00
64933;BME280;51446;53.850;10.662;2023-07-13T06:22:13;101175.53;;;20.21;100.00
64933;BME280;51446;53.850;10.662;2023-07-13T06:24:39;101180.94;;;20.65;100.00
64933;BME280;51446;53.850;10.662;2023-07-13T06:27:04;101169.09;;;20.82;100.00
64933;BME280;51446;53.850;10.662;2023-07-13T06:29:30;101182.47;;;20.30;100.00
64933;BME280;51446;53.850;10.662;2023-07-13T06:31:56;101172.69;;;21.21;100.00
64933;BME280;51446;53.850;10.662;2023-07-13T06:34:21;101179.19;;;21.48;100.00
64933;BME280;51446;53.850;10.662;2023-07-13T06:36:46;101192.06;;;21.70;100.00
64933;BME280;51446;53.850;10.662;2023-07-13T06:39:12;101187.56;;;21.72;100.00
64933;BME280;51446;53.850;10.662;2023-07-13T06:41:37;101193.28;;;21.57;100.00
64933;BME280;51446;53.850;10.662;2023-07-13T06:44:04;101187.34;;;22.17;100.00
64933;BME280;51446;53.850;10.662;2023-07-13T06:46:29;101198.81;;;21.85;100.00
64933;BME280;51446;53.850;10.662;2023-07-13T06:48:55;101200.97;;;21.69;100.00
64933;BME280;51446;53.850;10.662;2023-07-13T06:51:21;101195.56;;;22.08;100.00
64933;BME280;51446;53.850;10.662;2023-07-13T06:53:46;101192.22;;;20.79;100.00
64933;BME280;51446;53.850;10.662;2023-07-13T06:56:11;101193.78;;;21.34;100.00
64933;BME280;51446;53.850;10.662;2023-07-13T06:58:37;101203.94;;;21.14;100.00
64933;BME280;51446;53.850;10.662;2023-07-13T07:01:03;101199.50;;;21.93;100.00
64933;BME280;51446;53.850;10.662;2023-07-13T07:03:28;101203.06;;;21.14;100.00
64933;BME280;51446;53.850;10.662;2023-07-13T07:05:54;101198.06;;;20.52;100.00
64933;BME280;51446;53.850;10.662;2023-07-13T07:08:19;101202.91;;;21.23;100.00
64933;BME280;51446;53.850;10.662;2023-07-13T07:10:45;101197.81;;;20.67;100.00
64933;BME280;51446;53.850;10.662;2023-07-13T07:13:10;101200.75;;;20.97;100.00
64933;BME280;51446;53.850;10.662;2023-07-13T07:15:35;101198.34;;;20.36;100.00
64933;BME280;51446;53.850;10.662;2023-07-13T07:18:01;101201.94;;;20.84;100.00
64933;BME280;51446;53.850;10.662;2023-07-13T07:20:26;101208.13;;;21.28;100.00
64933;BME280;51446;53.850;10.662;2023-07-13T07:22:52;101214.75;;;20.63;100.00
64933;BME280;51446;53.850;10.662;2023-07-13T07:25:17;101211.78;;;20.78;100.00
64933;BME280;51446;53.850;10.662;2023-07-13T07:27:43;101211.34;;;20.53;100.00
64933;BME280;51446;53.850;10.662;2023-07-13T07:30:09;101213.16;;;20.53;100.00
64933;BME280;51446;53.850;10.662;2023-07-13T07:32:34;101213.81;;;21.53;100.00
64933;BME280;51446;53.850;10.662;2023-07-13T07:35:00;101204.81;;;21.95;100.00
64933;BME280;51446;53.850;10.662;2023-07-13T07:37:25;101212.47;;;21.73;100.00
64933;BME280;51446;53.850;10.662;2023-07-13T07:39:50;101203.38;;;22.17;100.00
64933;BME280;51446;53.850;10.662;2023-07-13T07:42:16;101207.28;;;22.04;100.00
64933;BME280;51446;53.850;10.662;2023-07-13T07:44:42;101206.25;;;22.10;100.00
64933;BME280;51446;53.850;10.662;2023-07-13T07:47:08;101208.66;;;21.44;100.00
64933;BME280;51446;53.850;10.662;2023-07-13T07:49:33;101202.44;;;21.01;100.00
64933;BME280;51446;53.850;10.662;2023-07-13T07:51:58;101209.50;;;21.85;100.00
64933;BME280;51446;53.850;10.662;2023-07-13T07:54:24;101200.00;;;22.09;100.00
64933;BME280;51446;53.850;10.662;2023-07-13T07:56:49;101209.41;;;21.90;98.36
64933;BME280;51446;53.850;10.662;2023-07-13T07:59:14;101210.00;;;22.70;94.09
64933;BME280;51446;53.850;10.662;2023-07-13T08:01:39;101209.50;;;22.89;92.54
64933;BME280;51446;53.850;10.662;2023-07-13T08:04:05;101212.38;;;23.14;90.29
64933;BME280;51446;53.850;10.662;2023-07-13T08:06:33;101214.06;;;22.17;92.61
64933;BME280;51446;53.850;10.662;2023-07-13T08:08:59;101220.16;;;22.57;91.32
64933;BME280;51446;53.850;10.662;2023-07-13T08:11:25;101210.97;;;23.30;86.36
64933;BME280;51446;53.850;10.662;2023-07-13T08:13:50;101214.28;;;23.68;83.35
64933;BME280;51446;53.850;10.662;2023-07-13T08:16:16;101212.31;;;24.54;79.24
64933;BME280;51446;53.850;10.662;2023-07-13T08:18:41;101215.47;;;25.16;76.97
64933;BME280;51446;53.850;10.662;2023-07-13T08:21:08;101215.88;;;25.74;70.68
64933;BME280;51446;53.850;10.662;2023-07-13T08:23:34;101215.63;;;26.87;64.09
64933;BME280;51446;53.850;10.662;2023-07-13T08:26:00;101215.59;;;26.66;65.30
64933;BME280;51446;53.850;10.662;2023-07-13T08:28:29;101213.25;;;26.58;67.16
64933;BME280;51446;53.850;10.662;2023-07-13T08:30:55;101222.50;;;25.66;67.15
64933;BME280;51446;53.850;10.662;2023-07-13T08:33:21;101221.69;;;25.16;68.62
64933;BME280;51446;53.850;10.662;2023-07-13T08:35:49;101211.72;;;25.20;69.41
64933;BME280;51446;53.850;10.662;2023-07-13T08:38:15;101214.03;;;24.82;72.50
64933;BME280;51446;53.850;10.662;2023-07-13T08:40:42;101206.78;;;23.80;76.84
64933;BME280;51446;53.850;10.662;2023-07-13T08:43:16;101217.81;;;23.69;76.83
64933;BME280;51446;53.850;10.662;2023-07-13T08:46:16;101219.50;;;23.43;78.54
64933;BME280;51446;53.850;10.662;2023-07-13T08:48:51;101203.50;;;24.25;76.65
64933;BME280;51446;53.850;10.662;2023-07-13T08:51:39;101208.81;;;23.43;74.45
64933;BME280;51446;53.850;10.662;2023-07-13T08:54:21;101208.31;;;23.30;77.75
64933;BME280;51446;53.850;10.662;2023-07-13T08:56:50;101208.50;;;24.86;68.90
64933;BME280;51446;53.850;10.662;2023-07-13T08:59:20;101205.38;;;24.23;71.03
64933;BME280;51446;53.850;10.662;2023-07-13T09:02:00;101202.31;;;24.07;70.80
64933;BME280;51446;53.850;10.662;2023-07-13T09:04:39;101202.72;;;25.21;67.61
64933;BME280;51446;53.850;10.662;2023-07-13T09:15:02;101202.19;;;25.80;65.73
64933;BME280;51446;53.850;10.662;2023-07-13T09:17:35;101211.13;;;25.37;63.67
64933;BME280;51446;53.850;10.662;2023-07-13T09:20:29;101208.06;;;25.90;63.38
64933;BME280;51446;53.850;10.662;2023-07-13T09:22:56;101210.97;;;25.16;67.06
64933;BME280;51446;53.850;10.662;2023-07-13T09:25:35;101210.63;;;25.49;62.34
64933;BME280;51446;53.850;10.662;2023-07-13T09:28:17;101208.75;;;25.51;64.45
64933;BME280;51446;53.850;10.662;2023-07-13T09:33:09;101203.22;;;26.62;59.54
64933;BME280;51446;53.850;10.662;2023-07-13T09:35:35;101202.00;;;24.16;68.12
64933;BME280;51446;53.850;10.662;2023-07-13T09:38:12;101196.53;;;24.46;67.93
64933;BME280;51446;53.850;10.662;2023-07-13T09:40:59;101202.56;;;25.49;65.56
64933;BME280;51446;53.850;10.662;2023-07-13T09:43:25;101201.69;;;26.36;61.40
64933;BME280;51446;53.850;10.662;2023-07-13T09:45:51;101198.00;;;26.18;59.92
64933;BME280;51446;53.850;10.662;2023-07-13T09:48:17;101202.13;;;27.45;56.37
64933;BME280;51446;53.850;10.662;2023-07-13T09:50:43;101201.50;;;27.40;57.07
64933;BME280;51446;53.850;10.662;2023-07-13T09:53:18;101198.25;;;27.32;54.48
64933;BME280;51446;53.850;10.662;2023-07-13T09:55:46;101204.38;;;26.56;56.05
64933;BME280;51446;53.850;10.662;2023-07-13T09:58:13;101205.53;;;27.11;54.43
64933;BME280;51446;53.850;10.662;2023-07-13T10:00:40;101199.97;;;27.34;53.83
64933;BME280;51446;53.850;10.662;2023-07-13T10:03:19;101212.03;;;27.26;53.64
64933;BME280;51446;53.850;10.662;2023-07-13T10:05:46;101204.41;;;26.77;55.28
64933;BME280;51446;53.850;10.662;2023-07-13T10:08:28;101203.38;;;27.94;53.01
64933;BME280;51446;53.850;10.662;2023-07-13T10:11:00;101212.25;;;26.61;54.38
64933;BME280;51446;53.850;10.662;2023-07-13T10:13:34;101205.31;;;25.92;56.29
64933;BME280;51446;53.850;10.662;2023-07-13T10:16:02;101210.19;;;24.89;60.71
64933;BME280;51446;53.850;10.662;2023-07-13T10:18:33;101206.84;;;24.32;64.71
64933;BME280;51446;53.850;10.662;2023-07-13T10:21:17;101205.91;;;24.33;65.89
64933;BME280;51446;53.850;10.662;2023-07-13T10:23:46;101207.03;;;24.25;66.80
64933;BME280;51446;53.850;10.662;2023-07-13T10:26:17;101190.38;;;24.93;65.95
64933;BME280;51446;53.850;10.662;2023-07-13T10:28:46;101195.47;;;24.25;63.19
64933;BME280;51446;53.850;10.662;2023-07-13T10:31:15;101193.56;;;23.73;66.38
64933;BME280;51446;53.850;10.662;2023-07-13T10:33:41;101188.00;;;25.77;61.21
64933;BME280;51446;53.850;10.662;2023-07-13T10:36:32;101191.25;;;26.07;57.30
64933;BME280;51446;53.850;10.662;2023-07-13T10:39:01;101194.22;;;26.83;55.60
64933;BME280;51446;53.850;10.662;2023-07-13T10:41:30;101186.38;;;26.38;53.61
64933;BME280;51446;53.850;10.662;2023-07-13T10:43:58;101193.16;;;27.07;52.50
64933;BME280;51446;53.850;10.662;2023-07-13T10:46:25;101181.19;;;26.54;52.73
64933;BME280;51446;53.850;10.662;2023-07-13T10:48:58;101179.72;;;27.26;51.60
64933;BME280;51446;53.850;10.662;2023-07-13T10:51:26;101193.50;;;26.99;52.34
64933;BME280;51446;53.850;10.662;2023-07-13T10:56:40;101199.00;;;26.36;52.11
64933;BME280;51446;53.850;10.662;2023-07-13T11:02:16;101209.78;;;25.91;52.73
64933;BME280;51446;53.850;10.662;2023-07-13T11:04:44;101203.16;;;26.43;48.96
64933;BME280;51446;53.850;10.662;2023-07-13T11:07:23;101203.09;;;25.35;52.31
64933;BME280;51446;53.850;10.662;2023-07-13T11:09:53;101204.16;;;24.57;56.74
64933;BME280;51446;53.850;10.662;2023-07-13T11:15:06;101211.09;;;24.64;58.42
64933;BME280;51446;53.850;10.662;2023-07-13T11:17:36;101212.38;;;24.00;60.45
64933;BME280;51446;53.850;10.662;2023-07-13T11:20:20;101228.03;;;23.56;62.66
64933;BME280;51446;53.850;10.662;2023-07-13T11:22:52;101250.47;;;21.84;60.16
64933;BME280;51446;53.850;10.662;2023-07-13T11:25:26;101243.69;;;20.85;62.51
64933;BME280;51446;53.850;10.662;2023-07-13T11:36:06;101260.25;;;19.96;66.11
64933;BME280;51446;53.850;10.662;2023-07-13T11:38:42;101260.22;;;21.02;64.73
64933;BME280;51446;53.850;10.662;2023-07-13T11:41:43;101269.09;;;20.53;65.89
64933;BME280;51446;53.850;10.662;2023-07-13T11:44:13;101253.78;;;20.67;72.29
64933;BME280;51446;53.850;10.662;2023-07-13T11:46:45;101261.28;;;20.42;77.32
64933;BME280;51446;53.850;10.662;2023-07-13T11:49:15;101258.38;;;20.57;79.95
64933;BME280;51446;53.850;10.662;2023-07-13T11:51:41;101275.88;;;20.19;86.32
64933;BME280;51446;53.850;10.662;2023-07-13T11:54:43;101275.69;;;19.71;94.25
64933;BME280;51446;53.850;10.662;2023-07-13T11:57:28;101279.25;;;19.68;97.99
64933;BME280;51446;53.850;10.662;2023-07-13T11:59:53;101279.75;;;19.98;100.00
64933;BME280;51446;53.850;10.662;2023-07-13T12:02:47;101284.09;;;20.05;100.00
64933;BME280;51446;53.850;10.662;2023-07-13T12:05:15;101282.59;;;20.42;100.00
64933;BME280;51446;53.850;10.662;2023-07-13T12:07:42;101289.94;;;20.27;100.00
64933;BME280;51446;53.850;10.662;2023-07-13T12:10:15;101283.00;;;20.72;100.00
64933;BME280;51446;53.850;10.662;2023-07-13T12:15:16;101279.66;;;20.59;99.35
64933;BME280;51446;53.850;10.662;2023-07-13T12:17:42;101282.19;;;20.65;98.78
64933;BME280;51446;53.850;10.662;2023-07-13T12:20:23;101280.84;;;21.38;95.93
64933;BME280;51446;53.850;10.662;2023-07-13T12:22:50;101277.19;;;22.22;87.07
64933;BME280;51446;53.850;10.662;2023-07-13T12:25:16;101270.22;;;21.77;79.73
64933;BME280;51446;53.850;10.662;2023-07-13T12:27:46;101282.66;;;21.36;79.76
64933;BME280;51446;53.850;10.662;2023-07-13T12:30:24;101287.97;;;21.36;80.90
64933;BME280;51446;53.850;10.662;2023-07-13T12:33:02;101290.34;;;20.57;85.73
64933;BME280;51446;53.850;10.662;2023-07-13T12:35:40;101281.56;;;20.51;87.63
64933;BME280;51446;53.850;10.662;2023-07-13T12:38:10;101279.00;;;20.94;88.30
64933;BME280;51446;53.850;10.662;2023-07-13T12:40:36;101289.06;;;20.80;89.77
64933;BME280;51446;53.850;10.662;2023-07-13T12:43:02;101287.78;;;21.01;89.52
64933;BME280;51446;53.850;10.662;2023-07-13T12:45:30;101291.25;;;21.48;85.35
64933;BME280;51446;53.850;10.662;2023-07-13T12:48:10;101294.56;;;21.19;85.52
64933;BME280;51446;53.850;10.662;2023-07-13T12:50:40;101308.66;;;20.77;89.02
64933;BME280;51446;53.850;10.662;2023-07-13T12:53:14;101305.00;;;20.85;88.86
64933;BME280;51446;53.850;10.662;2023-07-13T12:55:46;101326.75;;;21.08;90.25
64933;BME280;51446;53.850;10.662;2023-07-13T12:58:35;101330.53;;;20.43;94.03
64933;BME280;51446;53.850;10.662;2023-07-13T13:01:02;101335.72;;;19.95;100.00
64933;BME280;51446;53.850;10.662;2023-07-13T13:03:33;101343.25;;;19.56;100.00
64933;BME280;51446;53.850;10.662;2023-07-13T13:06:00;101345.94;;;19.54;100.00
64933;BME280;51446;53.850;10.662;2023-07-13T13:08:28;101346.03;;;19.48;100.00
64933;BME280;51446;53.850;10.662;2023-07-13T13:10:53;101353.59;;;19.06;100.00